Queimados, Brazil
Current Conditions -  °F | °C
As of 2:00 PM on Saturday 22 Nov 2014 (Local Time) from SBAF Reporting Station
Few Clouds Few Clouds  
Wind Chill: 100°   Ceiling: Unl
Heat Index: 101°   Visibility: 6mi
Dew Point: 61°   Wind: 6mph
Humidity: 27%   Direction: 100°E
Pressure: 29.8"   Gusts: NA
Location:  22.72°S, 43.56°W
Report Text: SBAF 221600Z 10005KT 9999 FEW025 38/16 Q1009
Loading
Personal Weather Stations






























Interactive Weather Map New forecast layout! Learn more

10-Day Weather Forecast

Advertisements
Track Severe Weather on mobile